Beechwood, Michigan
Current Conditions -  °F | °C
As of 1:55 AM on Sunday 26 Oct 2014 (Local Time) from KLNL Reporting Station
Clear Clear  
Wind Chill: 37°   Ceiling: Unl
Heat Index: 37°   Visibility: 10mi
Dew Point: 29°   Wind: 3mph
Humidity: 72%   Direction: 290°WNW
Pressure: 29.93"   Gusts: NA
Location:  46.2163°N, 88.7676°W
Report Text: KLNL 260655Z AUTO 29003KT 10SM CLR 03/M02 A2993 RMK AO2 T00271018
Loading
Personal Weather Stations






























Interactive Weather Map
Tropical Storm Tracking
New forecast layout! Learn more

10-Day Weather Forecast

Advertisements
Track Severe Weather on mobile